Miscellaneous Local Product
Issued by NWS

Home | Current Version | Previous Version | Text Only | Print | Product List | Glossary On
Versions: 1 2 3 4 5 6 7 8 9 10 11 12 13 14 15 16 17 18 19 20 21 22 23 24 25 26 27 28 29 30 31 32 33 34 35 36 37 38 39 40 41 42 43 44 45 46 47 48 49 50
000
AXUS44 KLUB 080420
MISWTM

METAR KARS 080415Z 16008KT 11/11 A3018 RMK A01 SLP186 T01140114 RH100% DA3400
METAR KAD1 080415Z 19014KT 10/10 A3016 RMK A01 SLP153 T00960096 RH100% DA4400
METAR KAI1 080415Z 17009KT 11/11 A3019 RMK A01 SLP188 T01130113 RH100% DA3400
METAR KAL1 080415Z 00000KT 13/11 A3018 RMK A01 SLP213 T01300107 RH86% DA1200
METAR KAM3 080415Z 19018G21KT 11/10 A3014 RMK A01 SLP175 T01140105 RH94% DA3400
METAR KAM1 080415Z 19010KT 11/11 A3017 RMK A01 SLP176 T01110111 RH100% DA3700
METAR KAM2 080415Z 19014KT 12/11 A3014 RMK A01 SLP170 T01150114 RH99% DA3500
METAR KAMH 080415Z 18008KT 11/11 A3018 RMK A01 SLP178 T01140111 RH98% DA3800
METAR KANS 080415Z 22004KT 14/13 A3022 RMK A01 SLP192 T01390127 RH93% DA3500
METAR KAOS 080415Z 18011KT 12/11 A3018 RMK A01 SLP181 T01230115 RH95% DA3600
METAR KASR 080415Z 00000KT 11/09 A3020 RMK A01 SLP219 T01130090 RH86% DA1400
METAR KBI1 080415Z 17005KT 18/18 A3021 RMK A01 SLP195 T01770177 RH100% DA3300
METAR KBO1 080415Z 21009KT 08/08 A3020 RMK A01 SLP168 T00850085 RH100% DA4400
METAR KBO2 080415Z 19012KT 11/10 A3014 RMK A01 SLP181 T01060098 RH95% DA3100
METAR KBY1 080415Z 00000KT 12/10 A3015 RMK A01 SLP181 T01160102 RH91% DA3300
METAR KBWS 080415Z 19007KT 13/12 A3020 RMK A01 SLP191 T01290122 RH96% DA3500
METAR KCA1 080415Z 12007KT 06/06 A3015 RMK A01 SLP203 T00620062 RH100% DA1700
METAR KQU1 080140Z 19004KT 10/10 A3019 RMK A01 SLP206 T00990096 RH98% DA2400
METAR KCA2 080415Z 32010KT 22/14 A3012 RMK A01 SLP172 T02190144 RH62% DA3300
METAR KCXS 080415Z 15003KT 08/08 A3020 RMK A01 SLP221 T00850083 RH99% DA1300
METAR KCES 080415Z 19007KT 08/07 A3017 RMK A01 SLP201 T00790073 RH99% DA2400
METAR KCL1 080415Z 18004KT 08/08 A3017 RMK A01 SLP184 T00800080 RH100% DA3200
METAR KCL2 080415Z 00000KT 15/14 A3020 RMK A01 SLP208 T01460142 RH97% DA2100
METAR KCO2 080415Z 01005KT 14/11 A3021 RMK A01 SLP210 T01430110 RH80% DA2300
METAR KCO3 080415Z 00000KT 09/09 A3021 RMK A01 SLP226 T00920090 RH98% DA1000
METAR KCO4 080415Z 12009KT 19/19 A3014 RMK A01 SLP194 T01900189 RH99% DA1800
METAR KCO1 080415Z 30007KT -RA 16/14 A3024 RMK A01 SLP209 T01550138 P0002 RH90% DA2900
METAR KCR2 080415Z 00000KT 17/17 A3021 RMK A01 SLP196 T01710172 RH100% DA3100
METAR KCR1 080415Z 00000KT -RA 09/09 A3021 RMK A01 SLP228 T00950095 P0001 RH100% DA0900
METAR KDC1 080415Z 29006KT 08/08 A3024 RMK A01 SLP199 T00780076 RH99% DA3400
METAR KDVS 080415Z 19007KT 12/12 A3021 RMK A01 SLP184 T01220116 RH96% DA3900
METAR KDMS 080415Z 19011KT 11/11 A3017 RMK A01 SLP167 T01090108 RH99% DA4000
METAR KDO2 080415Z 18007KT 21/16 A3017 RMK A01 SLP200 T02080163 RH76% DA2400
METAR KDR1 080415Z 20011KT 09/09 A3019 RMK A01 SLP166 T00900085 RH100% DA4400
METAR KDO1 080415Z 00000KT 08/08 A3020 RMK A01 SLP218 T00770077 RH100% DA1600
METAR KDU1 080415Z 21006KT 09/08 A3014 RMK A01 SLP171 T00870082 RH97% DA3400
METAR KEA1 080415Z 17006KT 11/11 A3019 RMK A01 SLP178 T01110111 RH100% DA3900
METAR KEN1 080415Z 20006KT 10/09 A3016 RMK A01 SLP162 T01040094 RH94% DA4100
METAR KES1 080415Z 00000KT -RA 09/09 A3019 RMK A01 SLP218 T00900090 P0001 RH100% DA1300
METAR KFLS 080415Z 17009KT 12/12 A3020 RMK A01 SLP191 T01170115 RH99% DA3300
METAR KFVS 080415Z 00000KT -RA 13/13 A3021 RMK A01 SLP205 T01320129 P0002 RH98% DA2800
METAR KCH1 080415Z 00000KT 19/17 A3018 RMK A01 SLP197 T01870174 RH92% DA2600
METAR KLA1 080415Z 00000KT 19/17 A3019 RMK A01 SLP200 T01890174 RH91% DA2800
METAR KFL1 080415Z 28004KT 01/M00 A3018 RMK A01 SLP068 T00081001 RH94% DA7600
METAR KMC1 080415Z 00000KT 18/17 A3020 RMK A01 SLP203 T01770167 RH94% DA2700
METAR KFAS 080415Z 19013KT 10/10 A3017 RMK A01 SLP168 T01010099 RH99% DA4100
METAR KFR1 080415Z 19016KT 12/12 A3013 RMK A01 SLP175 T01170117 RH100% DA3300
METAR KGGS 080415Z 00000KT -RA 14/14 A3020 RMK A01 SLP199 T01420138 P0001 RH98% DA2800
METAR KTI1 080415Z 00000KT 19/17 A3018 RMK A01 SLP208 T01920169 RH87% DA1700
METAR KGDS 080415Z 00000KT 09/09 A3019 RMK A01 SLP220 T00910087 RH97% DA1000
METAR KGO1 080415Z 17011KT 08/07 A3019 RMK A01 SLP200 T00750073 RH99% DA2700
METAR KGHS 080415Z 14004KT 13/13 A3020 RMK A01 SLP198 T01290126 RH99% DA3000
METAR KGU1 080415Z 25012KT 13/05 A3026 RMK A01 SLP137 T01340051 RH57% DA6300
METAR KPFS 080415Z 00000KT 10/09 A3019 RMK A01 SLP216 T00980093 RH97% DA1600
METAR KHA3 080415Z 00000KT 09/09 A3021 RMK A01 SLP224 T00940094 RH100% DA1200
METAR KHA2 080415Z 18008KT 10/10 A3018 RMK A01 SLP178 T01040104 RH100% DA3600
METAR KHRS 080415Z 19007KT 11/10 A3018 RMK A01 SLP179 T01070104 RH98% DA3800
METAR KHA1 071430Z 36006KT 09/07 A3015 RMK A01 SLP206 T00870072 RH90% DA1000
METAR KHE1 080415Z 12007KT RA 10/10 A3018 RMK A01 SLP218 T01030095 P0027 RH95% DA1000
METAR KHES 080415Z 21009KT 11/10 A3017 RMK A01 SLP173 T01090104 RH97% DA4000
METAR KHO1 080415Z 21005KT 12/11 A3025 RMK A01 SLP196 T01220114 RH94% DA3900
METAR KPD3 080415Z 13004KT 08/08 A3019 RMK A01 SLP210 T00840084 RH100% DA2100
METAR KJTS 080415Z 00000KT 11/10 A3020 RMK A01 SLP216 T01070103 RH97% DA1700
METAR KJU1 080415Z 00000KT 15/14 A3019 RMK A01 SLP207 T01520143 RH94% DA1900
METAR KKE1 080415Z 18005KT 14/12 A3026 RMK A01 SLP179 T01410118 RH86% DA4500
METAR KKN1 080415Z 00000KT 11/10 A3020 RMK A01 SLP222 T01080096 RH92% DA1000
METAR KAHS 080415Z 00000KT RA 12/12 A3021 RMK A01 SLP214 T01180116 P0004 RH99% DA2200
METAR KMC5 080415Z 17007KT 08/08 A3018 RMK A01 SLP197 T00810081 RH100% DA2800
METAR KLES 080415Z 15003KT 14/14 A3021 RMK A01 SLP195 T01430139 RH97% DA3300
METAR KLE1 080415Z 08004KT 09/09 A3019 RMK A01 SLP214 T00880088 RH100% DA1700
METAR KLD1 080415Z 18009KT 12/11 A3020 RMK A01 SLP185 T01210115 RH96% DA3700
METAR KLI1 080415Z 13009KT 07/06 A3016 RMK A01 SLP205 T00650057 RH95% DA2000
METAR KLO1 080415Z 22005KT 17/17 A3020 RMK A01 SLP197 T01680168 RH100% DA3000
METAR KLB2 080415Z 16006KT 12/12 A3020 RMK A01 SLP191 T01190116 RH98% DA3300
METAR KMC6 080415Z 21004KT RA 11/11 A3021 RMK A01 SLP200 T01150113 P0003 RH99% DA3000
METAR KMC4 080415Z 00000KT 18/18 A3021 RMK A01 SLP199 T01810179 RH99% DA3100
METAR KMCS 080415Z 16007KT 07/07 A3016 RMK A01 SLP197 T00750071 RH100% DA2400
METAR KMES 080415Z 00000KT -RA 08/08 A3020 RMK A01 SLP221 T00850083 P0001 RH99% DA1500
METAR KMD1 080415Z 00000KT 20/16 A3020 RMK A01 SLP204 T01970165 RH82% DA2600
METAR KME1 080415Z 18003KT 19/19 A3020 RMK A01 SLP200 T01850186 RH100% DA2800
METAR KMI1 080415Z 16005KT 07/07 A3017 RMK A01 SLP201 T00730071 RH99% DA2200
METAR KMNS 080415Z 19008KT 12/11 A3019 RMK A01 SLP178 T01160110 RH96% DA3900
METAR KMUS 080415Z 21007KT 11/10 A3018 RMK A01 SLP176 T01050097 RH95% DA3900
METAR KNE1 080415Z 15009KT 12/11 A3019 RMK A01 SLP187 T01180115 RH98% DA3400
METAR KNH1 080415Z 14005KT 12/12 A3021 RMK A01 SLP196 T01240124 RH100% DA3400
METAR KNOR 080415Z 00000KT 09/09 A3019 RMK A01 SLP214 T00910090 RH99% DA1600
METAR KLBW 080415Z 17007KT 13/12 A3019 RMK A01 SLP187 T01270120 RH96% DA3400
METAR KASU 080415Z 16005KT 18/17 A3017 RMK A01 SLP195 T01850166 RH89% DA2600
METAR KOES 080415Z 00000KT 14/13 A3021 RMK A01 SLP196 T01380134 RH98% DA3300
METAR KOD1 080415Z 11005KT 10/10 A3020 RMK A01 SLP224 T00980096 RH99% DA0800
METAR KONS 080415Z 18011KT 12/11 A3017 RMK A01 SLP173 T01160111 RH97% DA3700
METAR KPAD 080415Z 17003KT -RA 09/09 A3023 RMK A01 SLP229 T00940092 P0001 RH98% DA1500
METAR KPD2 080415Z 00000KT 10/10 A3018 RMK A01 SLP199 T00960096 RH100% DA2600
METAR KPD1 080415Z 13005KT 10/10 A3018 RMK A01 SLP185 T00960096 RH100% DA3400
METAR KPD4 080415Z 16007KT 09/08 A3013 RMK A01 SLP183 T00920079 RH91% DA2800
METAR KPMS 080415Z 17012KT 08/08 A3016 RMK A01 SLP189 T00820080 RH99% DA2900
METAR KPA1 080415Z 15007KT 09/09 A3017 RMK A01 SLP182 T00870085 RH99% DA3300
METAR KPA2 080415Z 17008KT 10/10 A3016 RMK A01 SLP176 T00980096 RH99% DA3500
METAR KPG1 080415Z 01012KT 19/16 A3019 RMK A01 SLP184 T01890162 RH84% DA3700
METAR KPPS 080415Z 18007KT 12/11 A3021 RMK A01 SLP184 T01160112 RH97% DA3900
METAR KPVS 080415Z 18008KT 12/11 A3018 RMK A01 SLP183 T01210112 RH95% DA3500
METAR KPT1 080415Z 00000KT 12/12 A3020 RMK A01 SLP206 T01230120 RH98% DA2600
METAR KRLS 080415Z 16004KT -RA 11/11 A3021 RMK A01 SLP196 T01140111 P0001 RH98% DA3100
METAR KREE 080415Z 19011KT 13/12 A3019 RMK A01 SLP185 T01270118 RH94% DA3600
METAR KRRS 080415Z 20005KT 11/11 A3020 RMK A01 SLP207 T01100106 RH97% DA2500
METAR KBR1 080415Z 25005KT 11/10 A3016 RMK A01 SLP164 T01050100 RH96% DA4100
METAR KRO1 080415Z 02005KT 12/09 A3020 RMK A01 SLP214 T01200094 RH85% DA1900
METAR KST1 080415Z 19005KT 18/16 A3021 RMK A01 SLP195 T01770161 RH90% DA3300
METAR KSGV 080415Z 17007KT 13/12 A3020 RMK A01 SLP188 T01280121 RH95% DA3600
METAR KSE2 080415Z 16004KT 16/16 A3020 RMK A01 SLP201 T01620157 RH97% DA2600
METAR KSM1 080415Z 19006KT 13/12 A3022 RMK A01 SLP193 T01330119 RH91% DA3600
METAR KSE1 080415Z 09005KT 11/10 A3017 RMK A01 SLP214 T01060100 RH96% DA0800
METAR KSB1 080415Z 00000KT 12/11 A3028 RMK A01 SLP179 T01200115 RH97% DA4900
METAR KSVS 080415Z 16004KT 10/10 A3018 RMK A01 SLP189 T00980096 RH98% DA3100
METAR KSLS 080415Z 14006KT 12/12 A3020 RMK A01 SLP195 T01210118 RH98% DA3100
METAR KSM2 080415Z 19010KT 13/12 A3020 RMK A01 SLP187 T01260116 RH94% DA3600
METAR KSYS 080415Z 05004KT 13/10 A3019 RMK A01 SLP204 T01250100 RH85% DA2400
METAR KWT1 080415Z 05004KT 13/11 A3020 RMK A01 SLP208 T01290113 RH90% DA2400
METAR KSP2 080415Z 18007KT 12/12 A3018 RMK A01 SLP187 T01160116 RH100% DA3200
METAR KLB1 080415Z 14003KT 12/12 A3020 RMK A01 SLP193 T01210117 RH97% DA3300
METAR KSP1 080415Z 00000KT 11/11 A3020 RMK A01 SLP211 T01120108 RH97% DA2100
METAR KST2 080415Z 02007KT 12/10 A3019 RMK A01 SLP218 T01160099 RH89% DA1200
METAR KSC1 080415Z 19004KT 19/18 A3020 RMK A01 SLP196 T01880177 RH94% DA3100
METAR KST3 080415Z 19007KT 11/10 A3015 RMK A01 SLP177 T01090102 RH95% DA3400
METAR KST4 080415Z 21012KT 08/08 A3012 RMK A01 SLP165 T00820077 RH97% DA3600
METAR KSDS 080415Z 17006KT 11/11 A3020 RMK A01 SLP184 T01140111 RH98% DA3800
METAR KSU1 080415Z 19010KT 10/09 A3014 RMK A01 SLP172 T00960087 RH94% DA3400
METAR KSW1 080415Z 04004KT 14/11 A3020 RMK A01 SLP201 T01360113 RH86% DA2600
METAR KTAS 080415Z 13005KT 13/12 A3020 RMK A01 SLP194 T01250121 RH98% DA3200
METAR KTA1 080415Z 30005KT 16/16 A3021 RMK A01 SLP195 T01550155 RH100% DA3300
METAR KTAT 080415Z 19008KT 11/10 A3021 RMK A01 SLP176 T01110104 RH99% DA4200
METAR KTE1 080415Z 22010KT 06/04 A3013 RMK A01 SLP136 T00630041 RH86% DA4600
METAR KTH1 080415Z 06008KT 11/10 A3018 RMK A01 SLP217 T01070105 RH99% DA0900
METAR KTR1 080415Z 25005KT RA 10/09 A3022 RMK A01 SLP230 T00980094 P0007 RH97% DA1000
METAR KTIS 080415Z 19007KT 10/10 A3018 RMK A01 SLP183 T01030101 RH98% DA3500
METAR KTUR 080415Z 14008KT -RA 10/09 A3018 RMK A01 SLP206 T00960094 P0001 RH99% DA2100
METAR KUM1 080415Z 20012KT 11/11 A3017 RMK A01 SLP174 T01070107 RH100% DA3900
METAR KVA1 080415Z 23004KT 13/12 A3025 RMK A01 SLP182 T01280123 RH97% DA4300
METAR KVE1 080415Z 20011KT 11/10 A3017 RMK A01 SLP165 T01060097 RH94% DA4100
METAR KVP1 080415Z 16007KT 09/09 A3018 RMK A01 SLP188 T00910089 RH99% DA3200
METAR KWA1 080415Z 18007KT 20/17 A3019 RMK A01 SLP203 T01980174 RH86% DA2600
METAR KWE1 080415Z 00000KT 10/09 A3019 RMK A01 SLP221 T01030093 RH93% DA1000
METAR KWE2 080415Z 00000KT 13/13 A3021 RMK A01 SLP195 T01340130 RH98% DA3400
METAR KWE3 080415Z 00000KT 08/08 A3020 RMK A01 SLP220 T00820080 RH99% DA1400
METAR KWVS 080415Z 28004KT 12/11 A3020 RMK A01 SLP205 T01160113 RH98% DA2600
METAR KWOS 080415Z 17004KT 12/12 A3020 RMK A01 SLP191 T01240121 RH98% DA3500

&&


USA.gov is the U.S. government's official web portal to all federal, state and local government web resources and services.